Terminal Aerodrome Forecast
Issued by NWS Central Illinois

Home | Current Version | Previous Version | Text Only | Print | Product List | Glossary On
Versions: 1 2 3 4 5 6 7 8 9 10 11 12 13 14 15 16 17 18 19 20 21 22 23 24 25
000
FTUS43 KILX 261700 RRA
TAFSPI
TAF
KSPI 261740Z 2618/2718 25009KT P6SM SCT025 BKN200
      TEMPO 2618/2620 BKN025
     FM262000 25009KT P6SM SCT035 BKN050
     FM262200 24007KT P6SM VCTS SCT040CB BKN080
      TEMPO 2622/2624 27025G40KT 2SM TSRA BR BKN025CB OVC040
     FM270200 26006KT P6SM SCT045 BKN250
     FM271500 30012G17KT P6SM SCT045=

USA.gov is the U.S. government's official web portal to all federal, state and local government web resources and services.